sensor_id;sensor_type;location;lat;lon;timestamp;P1;durP1;ratioP1;P2;durP2;ratioP2
65691;SDS011;52411;52.716;6.696;2024-02-21T00:00:55;16.80;;;5.22;;
65691;SDS011;52411;52.716;6.696;2024-02-21T00:03:20;12.95;;;5.30;;
65691;SDS011;52411;52.716;6.696;2024-02-21T00:05:46;12.25;;;5.78;;
65691;SDS011;52411;52.716;6.696;2024-02-21T00:08:12;11.20;;;4.80;;
65691;SDS011;52411;52.716;6.696;2024-02-21T00:10:37;14.70;;;5.35;;
65691;SDS011;52411;52.716;6.696;2024-02-21T00:13:03;12.80;;;5.57;;
65691;SDS011;52411;52.716;6.696;2024-02-21T00:15:28;9.38;;;5.00;;
65691;SDS011;52411;52.716;6.696;2024-02-21T00:17:54;12.88;;;4.75;;
65691;SDS011;52411;52.716;6.696;2024-02-21T00:20:19;11.18;;;4.68;;
65691;SDS011;52411;52.716;6.696;2024-02-21T00:22:45;12.27;;;5.00;;
65691;SDS011;52411;52.716;6.696;2024-02-21T00:25:11;11.65;;;4.55;;
65691;SDS011;52411;52.716;6.696;2024-02-21T00:27:37;10.27;;;4.57;;
65691;SDS011;52411;52.716;6.696;2024-02-21T00:30:04;10.05;;;4.57;;
65691;SDS011;52411;52.716;6.696;2024-02-21T00:32:30;10.00;;;4.55;;
65691;SDS011;52411;52.716;6.696;2024-02-21T00:34:57;12.75;;;4.53;;
65691;SDS011;52411;52.716;6.696;2024-02-21T00:37:22;7.80;;;4.05;;
65691;SDS011;52411;52.716;6.696;2024-02-21T00:39:48;9.95;;;4.72;;
65691;SDS011;52411;52.716;6.696;2024-02-21T00:42:13;12.88;;;4.40;;
65691;SDS011;52411;52.716;6.696;2024-02-21T00:44:39;10.35;;;4.90;;
65691;SDS011;52411;52.716;6.696;2024-02-21T00:47:05;11.98;;;4.47;;
65691;SDS011;52411;52.716;6.696;2024-02-21T00:49:30;12.95;;;4.53;;
65691;SDS011;52411;52.716;6.696;2024-02-21T00:51:56;12.82;;;4.50;;
65691;SDS011;52411;52.716;6.696;2024-02-21T00:54:21;11.10;;;4.07;;
65691;SDS011;52411;52.716;6.696;2024-02-21T00:56:47;10.30;;;4.25;;
65691;SDS011;52411;52.716;6.696;2024-02-21T00:59:13;8.45;;;3.67;;
65691;SDS011;52411;52.716;6.696;2024-02-21T01:01:39;10.18;;;4.18;;
65691;SDS011;52411;52.716;6.696;2024-02-21T01:04:07;9.07;;;3.88;;
65691;SDS011;52411;52.716;6.696;2024-02-21T01:06:34;10.73;;;4.45;;
65691;SDS011;52411;52.716;6.696;2024-02-21T01:08:59;7.70;;;3.92;;
65691;SDS011;52411;52.716;6.696;2024-02-21T01:11:25;12.65;;;4.18;;
65691;SDS011;52411;52.716;6.696;2024-02-21T01:13:51;7.38;;;3.63;;
65691;SDS011;52411;52.716;6.696;2024-02-21T01:16:16;12.45;;;4.28;;
65691;SDS011;52411;52.716;6.696;2024-02-21T01:18:42;9.02;;;4.10;;
65691;SDS011;52411;52.716;6.696;2024-02-21T01:21:07;12.30;;;3.95;;
65691;SDS011;52411;52.716;6.696;2024-02-21T01:23:34;10.40;;;4.15;;
65691;SDS011;52411;52.716;6.696;2024-02-21T01:26:01;9.27;;;3.50;;
65691;SDS011;52411;52.716;6.696;2024-02-21T01:28:27;8.75;;;3.65;;
65691;SDS011;52411;52.716;6.696;2024-02-21T01:30:52;7.35;;;3.63;;
65691;SDS011;52411;52.716;6.696;2024-02-21T01:33:18;7.88;;;3.78;;
65691;SDS011;52411;52.716;6.696;2024-02-21T01:35:44;6.55;;;3.75;;
65691;SDS011;52411;52.716;6.696;2024-02-21T01:38:09;8.50;;;3.28;;
65691;SDS011;52411;52.716;6.696;2024-02-21T01:40:37;7.93;;;3.22;;
65691;SDS011;52411;52.716;6.696;2024-02-21T01:43:02;5.70;;;3.10;;
65691;SDS011;52411;52.716;6.696;2024-02-21T01:45:28;5.90;;;3.35;;
65691;SDS011;52411;52.716;6.696;2024-02-21T01:47:54;6.38;;;3.42;;
65691;SDS011;52411;52.716;6.696;2024-02-21T01:50:19;7.05;;;3.40;;
65691;SDS011;52411;52.716;6.696;2024-02-21T01:52:47;9.75;;;3.10;;
65691;SDS011;52411;52.716;6.696;2024-02-21T01:55:15;11.65;;;3.17;;
65691;SDS011;52411;52.716;6.696;2024-02-21T01:57:42;7.88;;;3.35;;
65691;SDS011;52411;52.716;6.696;2024-02-21T02:00:10;5.97;;;3.17;;
65691;SDS011;52411;52.716;6.696;2024-02-21T02:02:38;6.35;;;3.30;;
65691;SDS011;52411;52.716;6.696;2024-02-21T02:05:04;9.57;;;3.20;;
65691;SDS011;52411;52.716;6.696;2024-02-21T02:07:31;7.55;;;3.10;;
65691;SDS011;52411;52.716;6.696;2024-02-21T02:09:57;8.30;;;3.22;;
65691;SDS011;52411;52.716;6.696;2024-02-21T02:12:22;6.82;;;3.15;;
65691;SDS011;52411;52.716;6.696;2024-02-21T02:14:59;7.03;;;3.05;;
65691;SDS011;52411;52.716;6.696;2024-02-21T02:17:24;7.68;;;3.38;;
65691;SDS011;52411;52.716;6.696;2024-02-21T02:19:50;6.82;;;3.05;;
65691;SDS011;52411;52.716;6.696;2024-02-21T02:22:17;8.27;;;3.33;;
65691;SDS011;52411;52.716;6.696;2024-02-21T02:24:47;6.97;;;3.50;;
65691;SDS011;52411;52.716;6.696;2024-02-21T02:27:13;8.25;;;3.17;;
65691;SDS011;52411;52.716;6.696;2024-02-21T02:29:39;8.98;;;3.42;;
65691;SDS011;52411;52.716;6.696;2024-02-21T02:32:04;9.38;;;3.63;;
65691;SDS011;52411;52.716;6.696;2024-02-21T02:34:30;6.63;;;3.22;;
65691;SDS011;52411;52.716;6.696;2024-02-21T02:36:56;9.98;;;4.10;;
65691;SDS011;52411;52.716;6.696;2024-02-21T02:39:21;6.07;;;3.60;;
65691;SDS011;52411;52.716;6.696;2024-02-21T02:41:47;6.82;;;3.65;;
65691;SDS011;52411;52.716;6.696;2024-02-21T02:44:13;6.82;;;3.70;;
65691;SDS011;52411;52.716;6.696;2024-02-21T02:46:40;6.70;;;3.40;;
65691;SDS011;52411;52.716;6.696;2024-02-21T02:49:06;8.18;;;3.53;;
65691;SDS011;52411;52.716;6.696;2024-02-21T02:51:32;8.60;;;3.50;;
65691;SDS011;52411;52.716;6.696;2024-02-21T02:53:57;6.93;;;3.22;;
65691;SDS011;52411;52.716;6.696;2024-02-21T02:56:23;10.32;;;3.55;;
65691;SDS011;52411;52.716;6.696;2024-02-21T02:58:48;10.65;;;3.75;;
65691;SDS011;52411;52.716;6.696;2024-02-21T03:01:14;9.57;;;3.65;;
65691;SDS011;52411;52.716;6.696;2024-02-21T03:03:40;5.57;;;2.83;;
65691;SDS011;52411;52.716;6.696;2024-02-21T03:06:05;7.80;;;3.20;;
65691;SDS011;52411;52.716;6.696;2024-02-21T03:08:31;9.65;;;3.67;;
65691;SDS011;52411;52.716;6.696;2024-02-21T03:10:58;6.45;;;3.50;;
65691;SDS011;52411;52.716;6.696;2024-02-21T03:13:24;12.07;;;3.58;;
65691;SDS011;52411;52.716;6.696;2024-02-21T03:15:50;10.73;;;3.33;;
65691;SDS011;52411;52.716;6.696;2024-02-21T03:18:16;6.15;;;3.42;;
65691;SDS011;52411;52.716;6.696;2024-02-21T03:20:41;9.25;;;3.42;;
65691;SDS011;52411;52.716;6.696;2024-02-21T03:23:07;7.40;;;3.33;;
65691;SDS011;52411;52.716;6.696;2024-02-21T03:25:32;9.65;;;3.78;;
65691;SDS011;52411;52.716;6.696;2024-02-21T03:27:58;8.98;;;3.05;;
65691;SDS011;52411;52.716;6.696;2024-02-21T03:30:23;10.50;;;3.55;;
65691;SDS011;52411;52.716;6.696;2024-02-21T03:32:49;16.00;;;4.03;;
65691;SDS011;52411;52.716;6.696;2024-02-21T03:35:15;10.13;;;3.28;;
65691;SDS011;52411;52.716;6.696;2024-02-21T03:37:40;8.70;;;3.10;;
65691;SDS011;52411;52.716;6.696;2024-02-21T03:40:07;7.43;;;3.60;;
65691;SDS011;52411;52.716;6.696;2024-02-21T03:42:33;6.65;;;3.10;;
65691;SDS011;52411;52.716;6.696;2024-02-21T03:44:59;10.73;;;3.42;;
65691;SDS011;52411;52.716;6.696;2024-02-21T03:47:25;10.05;;;4.00;;
65691;SDS011;52411;52.716;6.696;2024-02-21T03:49:50;6.80;;;3.20;;
65691;SDS011;52411;52.716;6.696;2024-02-21T03:52:16;11.30;;;3.88;;
65691;SDS011;52411;52.716;6.696;2024-02-21T03:54:42;8.48;;;3.50;;
65691;SDS011;52411;52.716;6.696;2024-02-21T03:57:07;10.88;;;3.35;;
65691;SDS011;52411;52.716;6.696;2024-02-21T03:59:33;7.97;;;3.60;;
65691;SDS011;52411;52.716;6.696;2024-02-21T04:01:59;8.27;;;3.47;;
65691;SDS011;52411;52.716;6.696;2024-02-21T04:04:25;9.10;;;3.63;;
65691;SDS011;52411;52.716;6.696;2024-02-21T04:06:51;7.10;;;3.00;;
65691;SDS011;52411;52.716;6.696;2024-02-21T04:09:17;11.15;;;3.35;;
65691;SDS011;52411;52.716;6.696;2024-02-21T04:11:43;9.25;;;3.20;;
65691;SDS011;52411;52.716;6.696;2024-02-21T04:14:08;12.35;;;3.33;;
65691;SDS011;52411;52.716;6.696;2024-02-21T04:16:36;8.32;;;3.58;;
65691;SDS011;52411;52.716;6.696;2024-02-21T04:19:02;12.55;;;3.45;;
65691;SDS011;52411;52.716;6.696;2024-02-21T04:21:27;10.60;;;3.38;;
65691;SDS011;52411;52.716;6.696;2024-02-21T04:23:53;8.98;;;3.53;;
65691;SDS011;52411;52.716;6.696;2024-02-21T04:26:18;11.73;;;3.50;;
65691;SDS011;52411;52.716;6.696;2024-02-21T04:28:47;6.18;;;2.80;;
65691;SDS011;52411;52.716;6.696;2024-02-21T04:31:12;7.20;;;3.10;;
65691;SDS011;52411;52.716;6.696;2024-02-21T04:33:38;9.95;;;2.90;;
65691;SDS011;52411;52.716;6.696;2024-02-21T04:36:04;7.40;;;3.33;;
65691;SDS011;52411;52.716;6.696;2024-02-21T04:38:30;8.77;;;3.40;;
65691;SDS011;52411;52.716;6.696;2024-02-21T04:40:56;6.85;;;3.20;;
65691;SDS011;52411;52.716;6.696;2024-02-21T04:43:23;8.60;;;3.38;;
65691;SDS011;52411;52.716;6.696;2024-02-21T04:45:50;9.73;;;3.30;;
65691;SDS011;52411;52.716;6.696;2024-02-21T04:48:16;7.45;;;3.35;;
65691;SDS011;52411;52.716;6.696;2024-02-21T04:50:41;7.47;;;3.33;;
65691;SDS011;52411;52.716;6.696;2024-02-21T04:53:07;9.63;;;3.67;;
65691;SDS011;52411;52.716;6.696;2024-02-21T04:55:33;9.55;;;3.30;;
65691;SDS011;52411;52.716;6.696;2024-02-21T04:57:58;9.15;;;2.78;;
65691;SDS011;52411;52.716;6.696;2024-02-21T05:00:25;8.13;;;2.80;;
65691;SDS011;52411;52.716;6.696;2024-02-21T05:02:51;9.43;;;3.47;;
65691;SDS011;52411;52.716;6.696;2024-02-21T05:05:16;10.00;;;2.90;;
65691;SDS011;52411;52.716;6.696;2024-02-21T05:07:42;8.95;;;3.35;;
65691;SDS011;52411;52.716;6.696;2024-02-21T05:10:07;7.13;;;3.00;;
65691;SDS011;52411;52.716;6.696;2024-02-21T05:12:34;9.38;;;3.60;;
65691;SDS011;52411;52.716;6.696;2024-02-21T05:15:00;7.82;;;3.28;;
65691;SDS011;52411;52.716;6.696;2024-02-21T05:17:26;6.25;;;3.00;;
65691;SDS011;52411;52.716;6.696;2024-02-21T05:19:51;8.02;;;3.17;;
65691;SDS011;52411;52.716;6.696;2024-02-21T05:22:17;9.30;;;3.22;;
65691;SDS011;52411;52.716;6.696;2024-02-21T05:24:42;6.57;;;3.00;;
65691;SDS011;52411;52.716;6.696;2024-02-21T05:27:08;6.60;;;3.13;;
65691;SDS011;52411;52.716;6.696;2024-02-21T05:29:33;8.23;;;3.38;;
65691;SDS011;52411;52.716;6.696;2024-02-21T05:31:59;9.13;;;3.20;;
65691;SDS011;52411;52.716;6.696;2024-02-21T05:34:25;12.35;;;3.42;;
65691;SDS011;52411;52.716;6.696;2024-02-21T05:36:51;9.02;;;3.60;;
65691;SDS011;52411;52.716;6.696;2024-02-21T05:39:17;7.32;;;3.60;;
65691;SDS011;52411;52.716;6.696;2024-02-21T05:41:43;8.77;;;3.63;;
65691;SDS011;52411;52.716;6.696;2024-02-21T05:44:09;6.95;;;3.88;;
65691;SDS011;52411;52.716;6.696;2024-02-21T05:46:35;9.15;;;4.10;;
65691;SDS011;52411;52.716;6.696;2024-02-21T05:49:00;8.10;;;3.55;;
65691;SDS011;52411;52.716;6.696;2024-02-21T05:51:26;7.40;;;3.90;;
65691;SDS011;52411;52.716;6.696;2024-02-21T05:53:51;10.18;;;4.32;;
65691;SDS011;52411;52.716;6.696;2024-02-21T05:56:17;9.10;;;4.18;;
65691;SDS011;52411;52.716;6.696;2024-02-21T05:58:43;9.13;;;4.35;;
65691;SDS011;52411;52.716;6.696;2024-02-21T06:01:09;9.38;;;3.67;;
65691;SDS011;52411;52.716;6.696;2024-02-21T06:03:34;10.02;;;4.50;;
65691;SDS011;52411;52.716;6.696;2024-02-21T06:06:01;11.23;;;4.90;;
65691;SDS011;52411;52.716;6.696;2024-02-21T06:08:28;13.32;;;4.88;;
65691;SDS011;52411;52.716;6.696;2024-02-21T06:10:53;13.88;;;4.63;;
65691;SDS011;52411;52.716;6.696;2024-02-21T06:13:21;10.95;;;4.50;;
65691;SDS011;52411;52.716;6.696;2024-02-21T06:15:48;9.65;;;4.18;;
65691;SDS011;52411;52.716;6.696;2024-02-21T06:18:15;11.23;;;4.15;;
65691;SDS011;52411;52.716;6.696;2024-02-21T06:20:44;13.38;;;4.90;;
65691;SDS011;52411;52.716;6.696;2024-02-21T06:23:11;9.38;;;4.63;;
65691;SDS011;52411;52.716;6.696;2024-02-21T06:25:37;13.20;;;5.57;;
65691;SDS011;52411;52.716;6.696;2024-02-21T06:28:03;9.45;;;4.45;;
65691;SDS011;52411;52.716;6.696;2024-02-21T06:30:29;9.43;;;4.38;;
65691;SDS011;52411;52.716;6.696;2024-02-21T06:32:55;9.68;;;4.30;;
65691;SDS011;52411;52.716;6.696;2024-02-21T06:35:24;14.13;;;4.30;;
65691;SDS011;52411;52.716;6.696;2024-02-21T06:37:50;10.30;;;4.68;;
65691;SDS011;52411;52.716;6.696;2024-02-21T06:40:23;10.75;;;4.65;;
65691;SDS011;52411;52.716;6.696;2024-02-21T06:42:49;8.63;;;4.00;;
65691;SDS011;52411;52.716;6.696;2024-02-21T06:45:15;13.20;;;4.57;;
65691;SDS011;52411;52.716;6.696;2024-02-21T06:47:42;9.65;;;4.10;;
65691;SDS011;52411;52.716;6.696;2024-02-21T06:50:08;11.02;;;4.50;;
65691;SDS011;52411;52.716;6.696;2024-02-21T06:52:34;9.48;;;4.03;;
65691;SDS011;52411;52.716;6.696;2024-02-21T06:54:59;13.27;;;5.15;;
65691;SDS011;52411;52.716;6.696;2024-02-21T06:57:25;11.25;;;4.40;;
65691;SDS011;52411;52.716;6.696;2024-02-21T06:59:51;10.07;;;4.30;;
65691;SDS011;52411;52.716;6.696;2024-02-21T07:02:16;10.75;;;4.32;;
65691;SDS011;52411;52.716;6.696;2024-02-21T07:04:42;9.98;;;4.50;;
65691;SDS011;52411;52.716;6.696;2024-02-21T07:07:08;9.93;;;4.32;;
65691;SDS011;52411;52.716;6.696;2024-02-21T07:09:34;12.85;;;4.78;;
65691;SDS011;52411;52.716;6.696;2024-02-21T07:11:59;11.43;;;4.63;;
65691;SDS011;52411;52.716;6.696;2024-02-21T07:14:25;10.32;;;4.90;;
65691;SDS011;52411;52.716;6.696;2024-02-21T07:16:53;10.13;;;5.13;;
65691;SDS011;52411;52.716;6.696;2024-02-21T07:19:19;9.85;;;4.57;;
65691;SDS011;52411;52.716;6.696;2024-02-21T07:21:44;10.52;;;4.68;;
65691;SDS011;52411;52.716;6.696;2024-02-21T07:24:10;9.00;;;4.68;;
65691;SDS011;52411;52.716;6.696;2024-02-21T07:26:36;15.88;;;5.85;;
65691;SDS011;52411;52.716;6.696;2024-02-21T07:29:02;12.05;;;6.28;;
65691;SDS011;52411;52.716;6.696;2024-02-21T07:31:27;15.05;;;7.35;;
65691;SDS011;52411;52.716;6.696;2024-02-21T07:33:53;13.77;;;6.03;;
65691;SDS011;52411;52.716;6.696;2024-02-21T07:36:28;12.02;;;5.82;;
65691;SDS011;52411;52.716;6.696;2024-02-21T07:38:57;9.75;;;4.95;;
65691;SDS011;52411;52.716;6.696;2024-02-21T07:41:23;15.05;;;5.90;;
65691;SDS011;52411;52.716;6.696;2024-02-21T07:43:50;16.25;;;5.50;;
65691;SDS011;52411;52.716;6.696;2024-02-21T07:46:16;12.25;;;5.57;;
65691;SDS011;52411;52.716;6.696;2024-02-21T07:48:42;15.65;;;6.50;;
65691;SDS011;52411;52.716;6.696;2024-02-21T07:51:09;12.88;;;5.95;;
65691;SDS011;52411;52.716;6.696;2024-02-21T07:53:35;14.15;;;6.65;;
65691;SDS011;52411;52.716;6.696;2024-02-21T07:56:01;15.20;;;5.90;;
65691;SDS011;52411;52.716;6.696;2024-02-21T07:58:26;13.10;;;5.70;;
65691;SDS011;52411;52.716;6.696;2024-02-21T08:00:52;15.90;;;5.78;;
65691;SDS011;52411;52.716;6.696;2024-02-21T08:03:17;16.50;;;6.13;;
65691;SDS011;52411;52.716;6.696;2024-02-21T08:05:43;14.30;;;6.88;;
65691;SDS011;52411;52.716;6.696;2024-02-21T08:08:09;14.30;;;7.15;;
65691;SDS011;52411;52.716;6.696;2024-02-21T08:10:34;12.93;;;6.25;;
65691;SDS011;52411;52.716;6.696;2024-02-21T08:13:00;19.05;;;7.15;;
65691;SDS011;52411;52.716;6.696;2024-02-21T08:15:26;12.93;;;6.43;;
65691;SDS011;52411;52.716;6.696;2024-02-21T08:17:54;14.48;;;6.32;;
65691;SDS011;52411;52.716;6.696;2024-02-21T08:20:24;14.77;;;5.95;;
65691;SDS011;52411;52.716;6.696;2024-02-21T08:22:50;14.15;;;7.28;;
65691;SDS011;52411;52.716;6.696;2024-02-21T08:25:15;14.60;;;6.32;;
65691;SDS011;52411;52.716;6.696;2024-02-21T08:27:41;14.90;;;7.63;;
65691;SDS011;52411;52.716;6.696;2024-02-21T08:30:06;11.23;;;6.03;;
65691;SDS011;52411;52.716;6.696;2024-02-21T08:32:33;14.60;;;6.53;;
65691;SDS011;52411;52.716;6.696;2024-02-21T08:35:00;11.60;;;5.25;;
65691;SDS011;52411;52.716;6.696;2024-02-21T08:37:29;13.27;;;6.63;;
65691;SDS011;52411;52.716;6.696;2024-02-21T08:39:55;13.23;;;6.70;;
65691;SDS011;52411;52.716;6.696;2024-02-21T08:42:20;12.57;;;6.40;;
65691;SDS011;52411;52.716;6.696;2024-02-21T08:44:46;13.32;;;6.38;;
65691;SDS011;52411;52.716;6.696;2024-02-21T08:47:11;15.13;;;8.05;;
65691;SDS011;52411;52.716;6.696;2024-02-21T08:49:37;11.85;;;6.47;;
65691;SDS011;52411;52.716;6.696;2024-02-21T08:52:03;11.10;;;5.63;;
65691;SDS011;52411;52.716;6.696;2024-02-21T08:54:29;14.80;;;6.40;;
65691;SDS011;52411;52.716;6.696;2024-02-21T08:56:55;12.82;;;6.25;;
65691;SDS011;52411;52.716;6.696;2024-02-21T08:59:21;13.95;;;6.95;;
65691;SDS011;52411;52.716;6.696;2024-02-21T09:01:47;14.70;;;6.70;;
65691;SDS011;52411;52.716;6.696;2024-02-21T09:04:12;14.18;;;6.72;;
65691;SDS011;52411;52.716;6.696;2024-02-21T09:06:38;12.60;;;5.95;;
65691;SDS011;52411;52.716;6.696;2024-02-21T09:09:07;14.25;;;6.70;;
65691;SDS011;52411;52.716;6.696;2024-02-21T09:11:35;14.90;;;6.38;;
65691;SDS011;52411;52.716;6.696;2024-02-21T09:14:00;11.52;;;6.80;;
65691;SDS011;52411;52.716;6.696;2024-02-21T09:16:28;16.65;;;6.88;;
65691;SDS011;52411;52.716;6.696;2024-02-21T09:18:57;14.52;;;7.60;;
65691;SDS011;52411;52.716;6.696;2024-02-21T09:21:29;14.82;;;7.43;;
65691;SDS011;52411;52.716;6.696;2024-02-21T09:23:55;14.20;;;7.38;;
65691;SDS011;52411;52.716;6.696;2024-02-21T09:26:21;12.77;;;6.93;;
65691;SDS011;52411;52.716;6.696;2024-02-21T09:28:46;12.52;;;5.55;;
65691;SDS011;52411;52.716;6.696;2024-02-21T09:31:12;16.42;;;6.03;;
65691;SDS011;52411;52.716;6.696;2024-02-21T09:33:37;12.60;;;6.43;;
65691;SDS011;52411;52.716;6.696;2024-02-21T09:36:03;11.50;;;5.80;;
65691;SDS011;52411;52.716;6.696;2024-02-21T09:38:30;12.75;;;5.85;;
65691;SDS011;52411;52.716;6.696;2024-02-21T09:41:14;14.82;;;6.05;;
65691;SDS011;52411;52.716;6.696;2024-02-21T09:43:42;14.52;;;6.13;;
65691;SDS011;52411;52.716;6.696;2024-02-21T09:46:13;11.27;;;5.70;;
65691;SDS011;52411;52.716;6.696;2024-02-21T09:51:33;12.48;;;6.22;;
65691;SDS011;52411;52.716;6.696;2024-02-21T09:54:01;12.43;;;5.85;;
65691;SDS011;52411;52.716;6.696;2024-02-21T09:56:28;11.77;;;5.85;;
65691;SDS011;52411;52.716;6.696;2024-02-21T09:58:54;12.02;;;5.25;;
65691;SDS011;52411;52.716;6.696;2024-02-21T10:01:20;11.68;;;5.78;;
65691;SDS011;52411;52.716;6.696;2024-02-21T10:03:45;9.90;;;5.10;;
65691;SDS011;52411;52.716;6.696;2024-02-21T10:06:11;9.88;;;5.22;;
65691;SDS011;52411;52.716;6.696;2024-02-21T10:08:36;11.88;;;5.68;;
65691;SDS011;52411;52.716;6.696;2024-02-21T10:11:02;10.80;;;4.72;;
65691;SDS011;52411;52.716;6.696;2024-02-21T10:13:29;8.90;;;4.53;;
65691;SDS011;52411;52.716;6.696;2024-02-21T10:16:01;11.45;;;5.15;;
65691;SDS011;52411;52.716;6.696;2024-02-21T10:18:31;9.38;;;4.60;;
65691;SDS011;52411;52.716;6.696;2024-02-21T10:21:01;10.68;;;4.82;;
65691;SDS011;52411;52.716;6.696;2024-02-21T10:23:27;11.07;;;5.00;;
65691;SDS011;52411;52.716;6.696;2024-02-21T10:25:53;9.75;;;5.03;;
65691;SDS011;52411;52.716;6.696;2024-02-21T10:28:18;9.02;;;5.10;;
65691;SDS011;52411;52.716;6.696;2024-02-21T10:30:51;10.98;;;5.13;;
65691;SDS011;52411;52.716;6.696;2024-02-21T10:33:17;10.88;;;4.80;;
65691;SDS011;52411;52.716;6.696;2024-02-21T10:35:47;11.77;;;4.90;;
65691;SDS011;52411;52.716;6.696;2024-02-21T10:38:14;8.80;;;4.25;;
65691;SDS011;52411;52.716;6.696;2024-02-21T10:40:40;7.97;;;4.53;;
65691;SDS011;52411;52.716;6.696;2024-02-21T10:43:06;11.25;;;4.95;;
65691;SDS011;52411;52.716;6.696;2024-02-21T10:45:37;9.35;;;4.57;;
65691;SDS011;52411;52.716;6.696;2024-02-21T10:48:11;10.32;;;4.78;;
65691;SDS011;52411;52.716;6.696;2024-02-21T10:50:55;8.57;;;4.85;;
65691;SDS011;52411;52.716;6.696;2024-02-21T10:59:00;12.35;;;4.35;;
65691;SDS011;52411;52.716;6.696;2024-02-21T11:01:26;10.27;;;4.63;;
65691;SDS011;52411;52.716;6.696;2024-02-21T11:03:54;10.65;;;5.30;;
65691;SDS011;52411;52.716;6.696;2024-02-21T11:06:22;10.45;;;5.40;;
65691;SDS011;52411;52.716;6.696;2024-02-21T11:08:58;8.95;;;4.30;;
65691;SDS011;52411;52.716;6.696;2024-02-21T11:11:35;11.65;;;4.68;;
65691;SDS011;52411;52.716;6.696;2024-02-21T11:14:05;7.32;;;3.83;;
65691;SDS011;52411;52.716;6.696;2024-02-21T11:16:34;12.75;;;5.15;;
65691;SDS011;52411;52.716;6.696;2024-02-21T11:19:08;11.25;;;5.40;;
65691;SDS011;52411;52.716;6.696;2024-02-21T11:21:47;9.15;;;4.80;;
65691;SDS011;52411;52.716;6.696;2024-02-21T11:24:14;10.73;;;5.30;;
65691;SDS011;52411;52.716;6.696;2024-02-21T11:26:55;10.57;;;5.00;;
65691;SDS011;52411;52.716;6.696;2024-02-21T11:29:24;9.70;;;4.20;;
65691;SDS011;52411;52.716;6.696;2024-02-21T11:31:50;8.95;;;4.65;;
65691;SDS011;52411;52.716;6.696;2024-02-21T11:34:17;10.13;;;4.22;;
65691;SDS011;52411;52.716;6.696;2024-02-21T11:36:50;8.23;;;4.00;;
65691;SDS011;52411;52.716;6.696;2024-02-21T11:39:21;10.45;;;4.25;;
65691;SDS011;52411;52.716;6.696;2024-02-21T11:42:04;7.88;;;3.92;;
65691;SDS011;52411;52.716;6.696;2024-02-21T11:44:34;7.72;;;3.78;;
65691;SDS011;52411;52.716;6.696;2024-02-21T11:47:03;5.90;;;3.58;;
65691;SDS011;52411;52.716;6.696;2024-02-21T11:49:30;9.65;;;4.25;;
65691;SDS011;52411;52.716;6.696;2024-02-21T11:52:02;6.85;;;3.83;;
65691;SDS011;52411;52.716;6.696;2024-02-21T11:54:32;5.75;;;3.70;;
65691;SDS011;52411;52.716;6.696;2024-02-21T11:56:58;7.53;;;3.85;;
65691;SDS011;52411;52.716;6.696;2024-02-21T11:59:25;7.10;;;3.75;;
65691;SDS011;52411;52.716;6.696;2024-02-21T12:01:50;6.20;;;3.15;;
65691;SDS011;52411;52.716;6.696;2024-02-21T12:04:17;5.32;;;2.92;;
65691;SDS011;52411;52.716;6.696;2024-02-21T12:06:44;5.95;;;2.90;;
65691;SDS011;52411;52.716;6.696;2024-02-21T12:09:13;7.40;;;3.20;;
65691;SDS011;52411;52.716;6.696;2024-02-21T12:11:41;6.25;;;3.10;;
65691;SDS011;52411;52.716;6.696;2024-02-21T12:14:07;6.05;;;3.03;;
65691;SDS011;52411;52.716;6.696;2024-02-21T12:16:34;7.03;;;3.13;;
65691;SDS011;52411;52.716;6.696;2024-02-21T12:19:03;7.57;;;3.25;;
65691;SDS011;52411;52.716;6.696;2024-02-21T12:21:33;5.13;;;2.80;;
65691;SDS011;52411;52.716;6.696;2024-02-21T12:24:11;6.68;;;3.40;;
65691;SDS011;52411;52.716;6.696;2024-02-21T12:26:40;7.13;;;3.38;;
65691;SDS011;52411;52.716;6.696;2024-02-21T12:29:06;6.72;;;3.20;;
65691;SDS011;52411;52.716;6.696;2024-02-21T12:31:34;5.05;;;2.90;;
65691;SDS011;52411;52.716;6.696;2024-02-21T12:34:03;5.63;;;2.88;;
65691;SDS011;52411;52.716;6.696;2024-02-21T12:36:29;6.07;;;2.70;;
65691;SDS011;52411;52.716;6.696;2024-02-21T12:38:56;6.80;;;2.85;;
65691;SDS011;52411;52.716;6.696;2024-02-21T12:41:21;4.47;;;2.55;;
65691;SDS011;52411;52.716;6.696;2024-02-21T12:43:47;4.82;;;2.50;;
65691;SDS011;52411;52.716;6.696;2024-02-21T12:46:13;4.18;;;2.50;;
65691;SDS011;52411;52.716;6.696;2024-02-21T12:48:38;4.68;;;2.78;;
65691;SDS011;52411;52.716;6.696;2024-02-21T12:51:05;4.82;;;2.72;;
65691;SDS011;52411;52.716;6.696;2024-02-21T12:53:30;4.35;;;2.83;;
65691;SDS011;52411;52.716;6.696;2024-02-21T12:55:56;5.32;;;3.25;;
65691;SDS011;52411;52.716;6.696;2024-02-21T13:00:57;6.80;;;3.42;;
65691;SDS011;52411;52.716;6.696;2024-02-21T13:09:33;4.88;;;2.60;;
65691;SDS011;52411;52.716;6.696;2024-02-21T13:11:59;6.10;;;3.30;;
65691;SDS011;52411;52.716;6.696;2024-02-21T13:14:24;5.55;;;2.97;;
65691;SDS011;52411;52.716;6.696;2024-02-21T13:16:50;5.93;;;2.53;;
65691;SDS011;52411;52.716;6.696;2024-02-21T13:19:16;5.90;;;2.70;;
65691;SDS011;52411;52.716;6.696;2024-02-21T13:21:42;4.30;;;2.45;;
65691;SDS011;52411;52.716;6.696;2024-02-21T13:24:08;6.10;;;2.85;;
65691;SDS011;52411;52.716;6.696;2024-02-21T13:29:09;5.03;;;2.88;;
65691;SDS011;52411;52.716;6.696;2024-02-21T13:40:09;7.43;;;3.05;;
65691;SDS011;52411;52.716;6.696;2024-02-21T13:42:35;7.50;;;3.15;;
65691;SDS011;52411;52.716;6.696;2024-02-21T13:51:18;8.40;;;3.38;;
65691;SDS011;52411;52.716;6.696;2024-02-21T13:53:45;6.38;;;3.55;;
65691;SDS011;52411;52.716;6.696;2024-02-21T14:01:21;7.28;;;3.35;;
65691;SDS011;52411;52.716;6.696;2024-02-21T14:03:47;7.25;;;3.10;;
65691;SDS011;52411;52.716;6.696;2024-02-21T14:11:23;5.45;;;3.40;;
65691;SDS011;52411;52.716;6.696;2024-02-21T14:13:49;7.78;;;3.60;;
65691;SDS011;52411;52.716;6.696;2024-02-21T14:16:15;8.20;;;3.22;;
65691;SDS011;52411;52.716;6.696;2024-02-21T14:18:40;6.00;;;3.35;;
65691;SDS011;52411;52.716;6.696;2024-02-21T14:21:07;9.80;;;3.30;;
65691;SDS011;52411;52.716;6.696;2024-02-21T14:29:00;8.25;;;3.03;;
65691;SDS011;52411;52.716;6.696;2024-02-21T14:37:05;7.78;;;3.08;;
65691;SDS011;52411;52.716;6.696;2024-02-21T14:39:31;6.45;;;3.35;;
65691;SDS011;52411;52.716;6.696;2024-02-21T14:41:59;6.13;;;3.15;;
65691;SDS011;52411;52.716;6.696;2024-02-21T14:44:25;5.97;;;3.30;;
65691;SDS011;52411;52.716;6.696;2024-02-21T14:46:50;7.03;;;3.33;;
65691;SDS011;52411;52.716;6.696;2024-02-21T14:49:16;6.32;;;3.33;;
65691;SDS011;52411;52.716;6.696;2024-02-21T14:51:44;6.50;;;2.72;;
65691;SDS011;52411;52.716;6.696;2024-02-21T14:54:09;7.50;;;3.35;;
65691;SDS011;52411;52.716;6.696;2024-02-21T14:59:11;8.68;;;3.80;;
65691;SDS011;52411;52.716;6.696;2024-02-21T15:01:37;8.15;;;3.25;;
65691;SDS011;52411;52.716;6.696;2024-02-21T15:04:06;6.32;;;3.35;;
65691;SDS011;52411;52.716;6.696;2024-02-21T15:06:32;8.70;;;3.45;;
65691;SDS011;52411;52.716;6.696;2024-02-21T15:14:12;9.48;;;3.17;;
65691;SDS011;52411;52.716;6.696;2024-02-21T15:16:37;6.35;;;2.95;;
65691;SDS011;52411;52.716;6.696;2024-02-21T15:19:04;8.68;;;3.15;;
65691;SDS011;52411;52.716;6.696;2024-02-21T15:21:29;7.20;;;3.50;;
65691;SDS011;52411;52.716;6.696;2024-02-21T15:23:55;8.00;;;3.05;;
65691;SDS011;52411;52.716;6.696;2024-02-21T15:26:21;10.10;;;3.13;;
65691;SDS011;52411;52.716;6.696;2024-02-21T15:28:47;5.78;;;3.28;;
65691;SDS011;52411;52.716;6.696;2024-02-21T15:31:20;4.60;;;2.88;;
65691;SDS011;52411;52.716;6.696;2024-02-21T15:33:52;5.57;;;3.38;;
65691;SDS011;52411;52.716;6.696;2024-02-21T15:36:18;12.68;;;3.20;;
65691;SDS011;52411;52.716;6.696;2024-02-21T15:38:47;7.13;;;3.78;;
65691;SDS011;52411;52.716;6.696;2024-02-21T15:41:13;7.05;;;3.10;;
65691;SDS011;52411;52.716;6.696;2024-02-21T15:43:41;9.05;;;3.40;;